Main page
METAR-TAF:

METAR-TAF

Airports :

Ärna Airport

Uppsala, Sweden

latitude: 59-53N, longitude: 017-36E, elevation: 21 m

Current weather observation

The report was made 35 minutes ago, at 22:20 UTC
Wind 20 kt from the West/Southwest with gusts up to 30 kt
Temperature 7°C
Humidity 70%
Pressure 985 hPa
Visibility 10 km or more

METAR: ESCM 172220Z AUTO 24020G30KT 9999 FEW031/// SCT039/// 07/02 Q0985

Time: 23:55 (22:55 UTC)

Forecast

The report was made 11 hours and 25 minutes ago, at 11:30 UTC
Forecast valid from 17 at 12 UTC to 17 at 15 UTC
Wind 18 kt from the Southwest with gusts up to 35 kt
Visibility 10 km or more
Broken clouds at a height of 3000 ft

TAF: ESCM 171130Z 1712/1715 23018G35KT 9999 BKN030 RMK MIL

Weather observations and forecasts of more than 4000 airports (METAR and TAF reports).

The available stations are represented by yellow and red dots on the map.

Hover mouse over dot to see the name of the station.

Then click to see weather observations and forecasts.

To change the map : click on the green buttons with a black cross to zoom in, on the green button with a dash to zoom out, or on the green arrows for adjacent maps.


METAR-TAF: